createdAt,value
2019-03-16T00:02:00.438Z,99355.83
2019-03-16T00:05:04.369Z,99361.66
2019-03-16T00:08:08.691Z,99370.31
2019-03-16T00:11:11.933Z,99364.02
2019-03-16T00:14:15.183Z,99348.75
2019-03-16T00:17:23.059Z,99370.00
2019-03-16T00:20:24.145Z,99373.02
2019-03-16T00:23:27.904Z,99367.36
2019-03-16T00:26:30.854Z,99354.13
2019-03-16T00:29:34.059Z,99381.30
2019-03-16T00:32:37.435Z,99376.16
2019-03-16T00:35:40.619Z,99368.96
2019-03-16T00:38:44.246Z,99374.00
2019-03-16T00:41:47.156Z,99384.07
2019-03-16T00:44:50.104Z,99394.42
2019-03-16T00:47:53.013Z,99386.16
2019-03-16T00:50:55.937Z,99386.05
2019-03-16T00:53:59.156Z,99381.36
2019-03-16T00:57:02.076Z,99375.42
2019-03-16T01:00:06.688Z,99375.98
2019-03-16T01:03:09.813Z,99355.48
2019-03-16T01:06:13.587Z,99362.50
2019-03-16T01:09:16.946Z,99370.34
2019-03-16T01:12:19.856Z,99391.78
2019-03-16T01:15:22.800Z,99393.04
2019-03-16T01:18:26.258Z,99386.44
2019-03-16T01:21:30.073Z,99382.48
2019-03-16T01:24:33.079Z,99385.64
2019-03-16T01:27:36.030Z,99386.74
2019-03-16T01:30:39.356Z,99390.70
2019-03-16T01:33:42.498Z,99385.14
2019-03-16T01:36:46.656Z,99388.81
2019-03-16T01:39:50.161Z,99377.50
2019-03-16T01:42:53.831Z,99386.91
2019-03-16T01:45:57.434Z,99385.04
2019-03-16T01:49:00.758Z,99388.50
2019-03-16T01:52:04.031Z,99384.34
2019-03-16T01:55:07.622Z,99373.44
2019-03-16T01:58:12.341Z,99375.45
2019-03-16T02:01:15.281Z,99369.58
2019-03-16T02:04:18.208Z,99385.73
2019-03-16T02:07:21.961Z,99377.94
2019-03-16T02:10:25.126Z,99377.78
2019-03-16T02:13:28.423Z,99380.58
2019-03-16T02:16:32.295Z,99387.62
2019-03-16T02:19:36.070Z,99391.14
2019-03-16T02:22:39.189Z,99386.19
2019-03-16T02:25:42.094Z,99379.84
2019-03-16T02:28:45.290Z,99371.89
2019-03-16T02:31:48.893Z,99376.02
2019-03-16T02:34:52.517Z,99373.90
2019-03-16T02:37:55.774Z,99379.30
2019-03-16T02:40:59.301Z,99384.87
2019-03-16T02:44:02.229Z,99375.77
2019-03-16T02:47:05.260Z,99377.21
2019-03-16T02:50:08.594Z,99392.08
2019-03-16T02:53:11.534Z,99394.36
2019-03-16T02:56:14.756Z,99396.03
2019-03-16T02:59:18.695Z,99388.47
2019-03-16T03:02:21.981Z,99377.95
2019-03-16T03:05:24.936Z,99391.30
2019-03-16T03:08:28.170Z,99380.72
2019-03-16T03:11:31.663Z,99379.62
2019-03-16T03:14:34.873Z,99372.83
2019-03-16T03:17:38.509Z,99366.56
2019-03-16T03:20:41.751Z,99374.70
2019-03-16T03:23:44.665Z,99368.16
2019-03-16T03:26:48.240Z,99380.33
2019-03-16T03:29:51.582Z,99378.72
2019-03-16T03:32:55.164Z,99391.05
2019-03-16T03:35:58.622Z,99389.08
2019-03-16T03:39:01.611Z,99396.39
2019-03-16T03:42:05.157Z,99398.64
2019-03-16T03:45:08.854Z,99395.55
2019-03-16T03:48:11.789Z,99390.55
2019-03-16T03:51:15.423Z,99387.19
2019-03-16T03:54:18.619Z,99387.91
2019-03-16T03:57:21.569Z,99390.27
2019-03-16T04:00:25.115Z,99390.80
2019-03-16T04:03:28.064Z,99376.92
2019-03-16T04:06:31.088Z,99381.89
2019-03-16T04:09:34.205Z,99376.92
2019-03-16T04:12:37.497Z,99391.70
2019-03-16T04:15:40.606Z,99389.80
2019-03-16T04:18:43.974Z,99391.16
2019-03-16T04:21:46.927Z,99383.16
2019-03-16T04:24:50.253Z,99381.27
2019-03-16T04:27:53.571Z,99384.12
2019-03-16T04:30:56.486Z,99383.94
2019-03-16T04:33:59.804Z,99381.58
2019-03-16T04:37:03.042Z,99385.83
2019-03-16T04:40:06.747Z,99377.34
2019-03-16T04:43:10.352Z,99378.07
2019-03-16T04:46:13.649Z,99387.35
2019-03-16T04:49:16.942Z,99378.78
2019-03-16T04:52:20.426Z,99375.72
2019-03-16T04:55:23.634Z,99377.13
2019-03-16T04:58:26.934Z,99378.26
2019-03-16T05:01:29.857Z,99370.52
2019-03-16T05:04:42.310Z,99375.42
2019-03-16T05:07:38.223Z,99377.58
2019-03-16T05:10:41.533Z,99376.45
2019-03-16T05:13:45.038Z,99378.34
2019-03-16T05:16:48.961Z,99366.75
2019-03-16T05:19:52.224Z,99361.69
2019-03-16T05:22:55.136Z,99359.44
2019-03-16T05:25:58.078Z,99361.77
2019-03-16T05:29:01.344Z,99357.84
2019-03-16T05:32:04.272Z,99364.80
2019-03-16T05:35:07.687Z,99376.14
2019-03-16T05:38:10.963Z,99366.98
2019-03-16T05:41:13.899Z,99370.16
2019-03-16T05:44:16.820Z,99358.48
2019-03-16T05:47:19.756Z,99342.93
2019-03-16T05:50:23.369Z,99347.13
2019-03-16T05:53:26.998Z,99346.64
2019-03-16T05:56:30.640Z,99340.89
2019-03-16T05:59:33.846Z,99340.14
2019-03-16T06:02:37.149Z,99339.72
2019-03-16T06:05:40.082Z,99340.63
2019-03-16T06:08:43.016Z,99330.82
2019-03-16T06:11:46.278Z,99326.67
2019-03-16T06:14:49.208Z,99329.34
2019-03-16T06:17:52.416Z,99318.21
2019-03-16T06:20:55.996Z,99322.75
2019-03-16T06:23:58.944Z,99325.75
2019-03-16T06:27:01.882Z,99319.60
2019-03-16T06:30:05.477Z,99324.81
2019-03-16T06:33:08.818Z,99323.05
2019-03-16T06:36:11.899Z,99322.08
2019-03-16T06:39:15.244Z,99320.12
2019-03-16T06:42:18.858Z,99311.62
2019-03-16T06:45:22.243Z,99317.77
2019-03-16T06:48:25.183Z,99319.15
2019-03-16T06:51:28.418Z,99313.94
2019-03-16T06:54:31.651Z,99315.71
2019-03-16T06:57:34.582Z,99311.14
2019-03-16T07:00:38.622Z,99303.38
2019-03-16T07:03:41.950Z,99297.06
2019-03-16T07:06:45.277Z,99292.37
2019-03-16T07:09:48.213Z,99292.39
2019-03-16T07:12:51.746Z,99291.07
2019-03-16T07:15:55.354Z,99293.72
2019-03-16T07:18:59.383Z,99296.08
2019-03-16T07:22:02.657Z,99288.25
2019-03-16T07:25:06.023Z,99286.22
2019-03-16T07:28:09.343Z,99272.00
2019-03-16T07:31:12.629Z,99277.41
2019-03-16T07:34:15.584Z,99278.08
2019-03-16T07:37:18.851Z,99273.39
2019-03-16T07:40:22.165Z,99255.66
2019-03-16T07:43:25.847Z,99252.06
2019-03-16T07:46:29.448Z,99248.44
2019-03-16T07:49:32.740Z,99252.42
2019-03-16T07:52:35.657Z,99255.91
2019-03-16T07:55:42.013Z,99255.59
2019-03-16T07:58:44.136Z,99249.15
2019-03-16T08:01:47.425Z,99255.85
2019-03-16T08:04:51.196Z,99257.20
2019-03-16T08:07:54.121Z,99270.71
2019-03-16T08:10:57.882Z,99259.98
2019-03-16T08:14:01.170Z,99269.56
2019-03-16T08:17:04.488Z,99274.56
2019-03-16T08:20:07.825Z,99264.13
2019-03-16T08:23:11.332Z,99256.78
2019-03-16T08:26:14.642Z,99271.69
2019-03-16T08:29:17.912Z,99264.52
2019-03-16T08:32:21.602Z,99249.55
2019-03-16T08:35:25.649Z,99250.20
2019-03-16T08:38:28.893Z,99258.72
2019-03-16T08:41:32.450Z,99253.52
2019-03-16T08:44:35.654Z,99265.74
2019-03-16T08:47:39.224Z,99257.67
2019-03-16T08:50:42.146Z,99265.66
2019-03-16T08:53:45.766Z,99256.45
2019-03-16T08:56:49.212Z,99247.97
2019-03-16T08:59:52.524Z,99243.33
2019-03-16T09:02:55.495Z,99250.68
2019-03-16T09:05:59.421Z,99248.08
2019-03-16T09:09:03.977Z,99250.38
2019-03-16T09:12:06.902Z,99245.89
2019-03-16T09:15:10.653Z,99255.02
2019-03-16T09:18:13.585Z,99245.20
2019-03-16T09:21:16.787Z,99245.85
2019-03-16T09:24:19.803Z,99248.55
2019-03-16T09:27:31.116Z,99240.38
2019-03-16T09:30:28.242Z,99250.27
2019-03-16T09:33:31.949Z,99250.98
2019-03-16T09:36:34.981Z,99255.92
2019-03-16T09:39:37.925Z,99241.53
2019-03-16T09:42:40.961Z,99248.22
2019-03-16T09:45:44.253Z,99234.73
2019-03-16T09:48:47.814Z,99235.48
2019-03-16T09:51:51.397Z,99228.14
2019-03-16T09:54:54.693Z,99223.84
2019-03-16T09:57:58.747Z,99241.35
2019-03-16T10:01:02.046Z,99227.23
2019-03-16T10:04:05.402Z,99238.70
2019-03-16T10:07:08.714Z,99232.92
2019-03-16T10:10:11.707Z,99221.27
2019-03-16T10:13:14.611Z,99204.92
2019-03-16T10:16:17.549Z,99208.27
2019-03-16T10:19:21.485Z,99211.41
2019-03-16T10:22:24.691Z,99199.47
2019-03-16T10:25:27.979Z,99189.23
2019-03-16T10:28:42.972Z,99196.28
2019-03-16T10:31:36.799Z,99196.33
2019-03-16T10:34:39.995Z,99194.55
2019-03-16T10:37:42.940Z,99193.81
2019-03-16T10:40:45.956Z,99198.18
2019-03-16T10:43:49.701Z,99193.63
2019-03-16T10:46:53.277Z,99196.52
2019-03-16T10:49:56.476Z,99187.66
2019-03-16T10:52:59.450Z,99187.58
2019-03-16T10:56:02.349Z,99187.39
2019-03-16T10:59:05.542Z,99184.53
2019-03-16T11:02:08.741Z,99186.94
2019-03-16T11:05:12.110Z,99172.39
2019-03-16T11:08:15.300Z,99175.44
2019-03-16T11:11:18.244Z,99166.19
2019-03-16T11:14:22.142Z,99163.47
2019-03-16T11:17:25.085Z,99159.59
2019-03-16T11:20:28.022Z,99161.92
2019-03-16T11:23:30.960Z,99170.41
2019-03-16T11:26:34.197Z,99165.27
2019-03-16T11:29:37.123Z,99174.59
2019-03-16T11:32:40.336Z,99178.01
2019-03-16T11:35:43.596Z,99162.84
2019-03-16T11:38:46.529Z,99159.50
2019-03-16T11:41:49.762Z,99155.20
2019-03-16T11:44:53.759Z,99172.50
2019-03-16T11:47:56.960Z,99164.50
2019-03-16T11:50:59.927Z,99176.19
2019-03-16T11:54:03.534Z,99168.20
2019-03-16T11:57:06.515Z,99160.92
2019-03-16T12:00:09.919Z,99173.34
2019-03-16T12:03:13.316Z,99175.47
2019-03-16T12:06:16.575Z,99174.41
2019-03-16T12:09:20.116Z,99172.69
2019-03-16T12:12:23.787Z,99174.69
2019-03-16T12:15:26.790Z,99157.75
2019-03-16T12:18:30.012Z,99162.55
2019-03-16T12:21:32.980Z,99158.37
2019-03-16T12:24:36.826Z,99164.02
2019-03-16T12:27:40.201Z,99156.08
2019-03-16T12:30:43.501Z,99170.00
2019-03-16T12:33:46.430Z,99176.08
2019-03-16T12:36:49.368Z,99152.66
2019-03-16T12:39:53.313Z,99147.06
2019-03-16T12:42:56.595Z,99156.25
2019-03-16T12:45:59.795Z,99144.28
2019-03-16T12:49:03.907Z,99142.63
2019-03-16T12:52:08.195Z,99142.73
2019-03-16T12:55:11.148Z,99144.51
2019-03-16T12:58:14.410Z,99133.52
2019-03-16T13:01:17.311Z,99139.66
2019-03-16T13:04:20.894Z,99143.19
2019-03-16T13:07:25.014Z,99125.13
2019-03-16T13:10:27.961Z,99130.31
2019-03-16T13:13:31.198Z,99136.47
2019-03-16T13:16:34.100Z,99136.70
2019-03-16T13:19:37.036Z,99131.59
2019-03-16T13:22:41.064Z,99115.88
2019-03-16T13:25:44.348Z,99129.17
2019-03-16T13:28:47.280Z,99120.52
2019-03-16T13:31:50.831Z,99109.20
2019-03-16T13:34:54.157Z,99115.36
2019-03-16T13:37:57.079Z,99108.94
2019-03-16T13:41:00.482Z,99099.49
2019-03-16T13:44:03.763Z,99116.63
2019-03-16T13:47:06.696Z,99122.16
2019-03-16T13:50:10.780Z,99107.07
2019-03-16T13:53:14.407Z,99105.38
2019-03-16T13:56:17.689Z,99101.55
2019-03-16T13:59:21.244Z,99103.28
2019-03-16T14:02:24.489Z,99088.87
2019-03-16T14:05:27.797Z,99092.88
2019-03-16T14:08:31.317Z,99102.59
2019-03-16T14:11:34.604Z,99085.00
2019-03-16T14:14:37.509Z,99078.11
2019-03-16T14:17:40.428Z,99079.06
2019-03-16T14:20:43.700Z,99070.40
2019-03-16T14:23:48.468Z,99086.67
2019-03-16T14:26:51.707Z,99070.73
2019-03-16T14:29:54.618Z,99060.90
2019-03-16T14:32:57.951Z,99081.71
2019-03-16T14:36:01.322Z,99078.97
2019-03-16T14:39:06.892Z,99090.92
2019-03-16T14:42:10.496Z,99067.62
2019-03-16T14:45:13.837Z,99072.54
2019-03-16T14:48:17.571Z,99053.76
2019-03-16T14:51:20.871Z,99072.05
2019-03-16T14:54:23.946Z,99058.12
2019-03-16T14:57:27.838Z,99057.34
2019-03-16T15:00:38.391Z,99056.47
2019-03-16T15:03:36.330Z,99051.86
2019-03-16T15:06:39.556Z,99035.52
2019-03-16T15:09:42.502Z,99038.25
2019-03-16T15:12:45.421Z,99036.95
2019-03-16T15:15:48.357Z,99024.70
2019-03-16T15:18:51.371Z,99028.15
2019-03-16T15:21:54.326Z,99017.66
2019-03-16T15:24:57.632Z,99006.58
2019-03-16T15:28:00.547Z,99018.13
2019-03-16T15:31:03.474Z,99012.68
2019-03-16T15:34:06.511Z,99006.98
2019-03-16T15:37:09.470Z,99010.44
2019-03-16T15:40:12.765Z,99002.05
2019-03-16T15:43:15.977Z,98996.20
2019-03-16T15:46:18.904Z,98991.76
2019-03-16T15:49:22.208Z,98987.14
2019-03-16T15:52:25.832Z,98983.30
2019-03-16T15:55:29.211Z,99002.88
2019-03-16T15:58:32.132Z,98980.47
2019-03-16T16:01:35.437Z,98988.41
2019-03-16T16:04:38.991Z,98979.75
2019-03-16T16:07:42.589Z,98988.46
2019-03-16T16:10:45.886Z,98964.86
2019-03-16T16:13:49.109Z,98964.34
2019-03-16T16:16:52.028Z,98962.16
2019-03-16T16:19:55.371Z,98954.27
2019-03-16T16:22:58.316Z,98958.84
2019-03-16T16:26:02.289Z,98960.59
2019-03-16T16:29:05.276Z,98957.84
2019-03-16T16:32:08.581Z,98933.52
2019-03-16T16:35:11.798Z,98935.34
2019-03-16T16:38:15.132Z,98931.99
2019-03-16T16:41:18.423Z,98933.56
2019-03-16T16:44:21.448Z,98925.36
2019-03-16T16:47:24.821Z,98926.28
2019-03-16T16:50:27.761Z,98923.03
2019-03-16T16:53:31.020Z,98929.39
2019-03-16T16:56:33.990Z,98919.86
2019-03-16T16:59:36.897Z,98930.25
2019-03-16T17:02:40.202Z,98919.55
2019-03-16T17:05:43.659Z,98924.64
2019-03-16T17:08:46.891Z,98920.38
2019-03-16T17:11:49.822Z,98927.53
2019-03-16T17:14:54.139Z,98932.23
2019-03-16T17:17:57.072Z,98926.73
2019-03-16T17:21:00.357Z,98940.77
2019-03-16T17:24:03.572Z,98927.80
2019-03-16T17:27:07.190Z,98923.73
2019-03-16T17:30:13.778Z,98926.53
2019-03-16T17:33:18.129Z,98913.86
2019-03-16T17:36:22.320Z,98919.00
2019-03-16T17:39:26.540Z,98910.75
2019-03-16T17:42:29.781Z,98909.94
2019-03-16T17:45:33.150Z,98911.56
2019-03-16T17:48:36.082Z,98917.93
2019-03-16T17:51:39.017Z,98906.84
2019-03-16T17:54:43.044Z,98909.53
2019-03-16T17:57:45.993Z,98898.44
2019-03-16T18:00:49.228Z,98896.45
2019-03-16T18:03:52.468Z,98895.91
2019-03-16T18:06:55.407Z,98885.32
2019-03-16T18:09:58.777Z,98893.80
2019-03-16T18:13:02.054Z,98898.09
2019-03-16T18:16:05.669Z,98886.19
2019-03-16T18:19:08.584Z,98894.67
2019-03-16T18:22:11.603Z,98884.55
2019-03-16T18:25:14.515Z,98894.47
2019-03-16T18:28:17.453Z,98879.52
2019-03-16T18:31:21.309Z,98893.66
2019-03-16T18:34:25.338Z,98902.72
2019-03-16T18:37:28.948Z,98891.37
2019-03-16T18:40:32.139Z,98888.97
2019-03-16T18:43:35.892Z,98890.61
2019-03-16T18:46:39.152Z,98891.72
2019-03-16T18:49:42.090Z,98885.67
2019-03-16T18:52:45.403Z,98874.89
2019-03-16T18:55:48.318Z,98885.27
2019-03-16T18:58:51.650Z,98884.15
2019-03-16T19:01:55.105Z,98877.27
2019-03-16T19:04:58.427Z,98873.87
2019-03-16T19:08:01.697Z,98868.02
2019-03-16T19:11:04.721Z,98869.39
2019-03-16T19:14:07.939Z,98859.73
2019-03-16T19:17:11.235Z,98869.80
2019-03-16T19:20:14.447Z,98861.52
2019-03-16T19:23:17.907Z,98856.22
2019-03-16T19:26:20.810Z,98847.98
2019-03-16T19:29:24.256Z,98857.70
2019-03-16T19:32:33.658Z,98843.66
2019-03-16T19:35:32.547Z,98838.92
2019-03-16T19:38:35.869Z,98841.51
2019-03-16T19:41:41.459Z,98842.83
2019-03-16T19:44:44.752Z,98835.06
2019-03-16T19:47:47.690Z,98838.86
2019-03-16T19:50:50.913Z,98825.29
2019-03-16T19:53:54.308Z,98820.97
2019-03-16T19:56:57.555Z,98819.08
2019-03-16T20:00:00.506Z,98810.94
2019-03-16T20:03:03.410Z,98798.38
2019-03-16T20:06:06.674Z,98807.12
2019-03-16T20:09:09.870Z,98794.16
2019-03-16T20:12:12.804Z,98794.52
2019-03-16T20:15:16.127Z,98803.00
2019-03-16T20:18:19.171Z,98784.95
2019-03-16T20:21:22.108Z,98783.88
2019-03-16T20:24:25.384Z,98779.25
2019-03-16T20:27:28.723Z,98784.75
2019-03-16T20:30:31.664Z,98771.06
2019-03-16T20:33:35.024Z,98779.86
2019-03-16T20:36:38.641Z,98757.38
2019-03-16T20:39:41.879Z,98757.78
2019-03-16T20:42:45.890Z,98749.10
2019-03-16T20:45:49.047Z,98739.84
2019-03-16T20:48:52.758Z,98744.27
2019-03-16T20:51:55.696Z,98738.52
2019-03-16T20:54:58.863Z,98745.39
2019-03-16T20:58:02.366Z,98744.62
2019-03-16T21:01:05.282Z,98746.14
2019-03-16T21:04:08.964Z,98742.95
2019-03-16T21:07:13.221Z,98729.81
2019-03-16T21:10:16.167Z,98726.42
2019-03-16T21:13:19.083Z,98721.33
2019-03-16T21:16:23.223Z,98709.31
2019-03-16T21:19:26.164Z,98713.86
2019-03-16T21:22:35.497Z,98704.48
2019-03-16T21:25:34.999Z,98702.88
2019-03-16T21:28:37.951Z,98705.06
2019-03-16T21:31:41.612Z,98703.28
2019-03-16T21:34:44.568Z,98696.67
2019-03-16T21:37:47.820Z,98716.59
2019-03-16T21:40:51.795Z,98690.61
2019-03-16T21:43:55.063Z,98684.86
2019-03-16T21:46:58.370Z,98676.73
2019-03-16T21:50:01.567Z,98694.95
2019-03-16T21:53:05.089Z,98682.87
2019-03-16T21:56:08.089Z,98675.30
2019-03-16T21:59:11.753Z,98681.39
2019-03-16T22:02:14.709Z,98665.95
2019-03-16T22:05:17.921Z,98651.03
2019-03-16T22:08:20.904Z,98664.53
2019-03-16T22:11:24.166Z,98653.95
2019-03-16T22:14:27.754Z,98657.40
2019-03-16T22:17:30.936Z,98647.81
2019-03-16T22:20:34.550Z,98635.32
2019-03-16T22:23:37.959Z,98633.54
2019-03-16T22:26:41.655Z,98623.02
2019-03-16T22:29:44.945Z,98615.70
2019-03-16T22:32:48.352Z,98616.41
2019-03-16T22:35:51.298Z,98613.30
2019-03-16T22:38:54.924Z,98608.63
2019-03-16T22:41:57.830Z,98602.48
2019-03-16T22:45:01.393Z,98607.36
2019-03-16T22:48:04.814Z,98599.37
2019-03-16T22:51:08.116Z,98604.47
2019-03-16T22:54:11.916Z,98591.80
2019-03-16T22:57:14.854Z,98598.91
2019-03-16T23:00:20.468Z,98594.45
2019-03-16T23:03:25.324Z,98578.00
2019-03-16T23:06:29.475Z,98576.49
2019-03-16T23:09:32.594Z,98572.98
2019-03-16T23:12:35.886Z,98579.44
2019-03-16T23:15:39.026Z,98562.99
2019-03-16T23:18:41.930Z,98556.05
2019-03-16T23:21:46.444Z,98553.40
2019-03-16T23:24:50.055Z,98519.41
2019-03-16T23:27:53.695Z,98553.16
2019-03-16T23:30:56.715Z,98544.70
2019-03-16T23:33:59.756Z,98542.23
2019-03-16T23:37:02.808Z,98542.81
2019-03-16T23:40:06.077Z,98534.36
2019-03-16T23:43:09.656Z,98523.32
2019-03-16T23:46:12.588Z,98533.67
2019-03-16T23:49:15.493Z,98533.22
2019-03-16T23:52:19.203Z,98535.64
2019-03-16T23:55:22.133Z,98514.48
2019-03-16T23:58:25.320Z,98517.52
